sensor_id;sensor_type;location;lat;lon;timestamp;P1;durP1;ratioP1;P2;durP2;ratioP2
70426;SDS011;57872;55.432;37.248;2023-02-11T00:02:08;25.25;;;8.95;;
70426;SDS011;57872;55.432;37.248;2023-02-11T00:07:12;24.20;;;9.87;;
70426;SDS011;57872;55.432;37.248;2023-02-11T00:12:14;31.73;;;10.50;;
70426;SDS011;57872;55.432;37.248;2023-02-11T00:46:10;23.37;;;9.57;;
70426;SDS011;57872;55.432;37.248;2023-02-11T00:51:14;26.33;;;9.60;;
70426;SDS011;57872;55.432;37.248;2023-02-11T00:56:27;22.47;;;8.87;;
70426;SDS011;57872;55.432;37.248;2023-02-11T01:01:43;29.13;;;9.77;;
70426;SDS011;57872;55.432;37.248;2023-02-11T01:07:12;21.73;;;9.53;;
70426;SDS011;57872;55.432;37.248;2023-02-11T01:17:32;30.20;;;8.80;;
70426;SDS011;57872;55.432;37.248;2023-02-11T01:22:34;22.37;;;7.73;;
70426;SDS011;57872;55.432;37.248;2023-02-11T01:27:38;25.30;;;10.47;;
70426;SDS011;57872;55.432;37.248;2023-02-11T01:32:43;22.90;;;8.30;;
70426;SDS011;57872;55.432;37.248;2023-02-11T01:37:44;22.33;;;8.07;;
70426;SDS011;57872;55.432;37.248;2023-02-11T01:43:10;24.20;;;9.17;;
70426;SDS011;57872;55.432;37.248;2023-02-11T01:54:09;22.47;;;8.53;;
70426;SDS011;57872;55.432;37.248;2023-02-11T01:59:51;23.90;;;8.47;;
70426;SDS011;57872;55.432;37.248;2023-02-11T02:11:07;18.53;;;7.60;;
70426;SDS011;57872;55.432;37.248;2023-02-11T02:16:11;19.80;;;7.40;;
70426;SDS011;57872;55.432;37.248;2023-02-11T02:49:14;19.33;;;6.63;;
70426;SDS011;57872;55.432;37.248;2023-02-11T02:54:42;16.70;;;6.13;;
70426;SDS011;57872;55.432;37.248;2023-02-11T03:00:13;17.00;;;6.27;;
70426;SDS011;57872;55.432;37.248;2023-02-11T03:06:04;16.90;;;6.07;;
70426;SDS011;57872;55.432;37.248;2023-02-11T03:11:09;15.57;;;5.53;;
70426;SDS011;57872;55.432;37.248;2023-02-11T03:16:28;13.87;;;5.97;;
70426;SDS011;57872;55.432;37.248;2023-02-11T03:21:38;21.70;;;6.23;;
70426;SDS011;57872;55.432;37.248;2023-02-11T03:37:11;20.53;;;5.20;;
70426;SDS011;57872;55.432;37.248;2023-02-11T03:48:28;15.40;;;4.43;;
70426;SDS011;57872;55.432;37.248;2023-02-11T04:05:07;16.13;;;5.20;;
70426;SDS011;57872;55.432;37.248;2023-02-11T04:10:12;10.60;;;4.77;;
70426;SDS011;57872;55.432;37.248;2023-02-11T04:16:25;14.60;;;5.28;;
70426;SDS011;57872;55.432;37.248;2023-02-11T04:21:33;16.05;;;6.43;;
70426;SDS011;57872;55.432;37.248;2023-02-11T04:26:37;17.20;;;5.97;;
70426;SDS011;57872;55.432;37.248;2023-02-11T04:38:27;16.23;;;5.77;;
70426;SDS011;57872;55.432;37.248;2023-02-11T04:43:53;18.50;;;6.17;;
70426;SDS011;57872;55.432;37.248;2023-02-11T04:55:24;17.77;;;6.17;;
70426;SDS011;57872;55.432;37.248;2023-02-11T05:00:28;18.73;;;6.70;;
70426;SDS011;57872;55.432;37.248;2023-02-11T05:05:29;22.60;;;6.40;;
70426;SDS011;57872;55.432;37.248;2023-02-11T05:10:32;20.77;;;6.70;;
70426;SDS011;57872;55.432;37.248;2023-02-11T05:21:44;14.07;;;5.67;;
70426;SDS011;57872;55.432;37.248;2023-02-11T05:28:08;16.23;;;6.53;;
70426;SDS011;57872;55.432;37.248;2023-02-11T05:33:57;17.03;;;7.90;;
70426;SDS011;57872;55.432;37.248;2023-02-11T05:50:45;16.87;;;5.97;;
70426;SDS011;57872;55.432;37.248;2023-02-11T05:57:20;19.77;;;6.17;;
70426;SDS011;57872;55.432;37.248;2023-02-11T06:03:27;20.03;;;6.03;;
70426;SDS011;57872;55.432;37.248;2023-02-11T06:28:17;17.03;;;5.20;;
70426;SDS011;57872;55.432;37.248;2023-02-11T06:33:37;12.90;;;5.70;;
70426;SDS011;57872;55.432;37.248;2023-02-11T06:39:09;14.03;;;5.93;;
70426;SDS011;57872;55.432;37.248;2023-02-11T06:44:14;17.77;;;6.37;;
70426;SDS011;57872;55.432;37.248;2023-02-11T06:54:40;17.37;;;6.33;;
70426;SDS011;57872;55.432;37.248;2023-02-11T06:59:48;17.27;;;6.93;;
70426;SDS011;57872;55.432;37.248;2023-02-11T07:05:01;18.80;;;7.33;;
70426;SDS011;57872;55.432;37.248;2023-02-11T07:10:05;16.90;;;6.40;;
70426;SDS011;57872;55.432;37.248;2023-02-11T07:20:47;15.37;;;6.30;;
70426;SDS011;57872;55.432;37.248;2023-02-11T07:25:49;16.37;;;6.10;;
70426;SDS011;57872;55.432;37.248;2023-02-11T07:30:50;14.60;;;5.63;;
70426;SDS011;57872;55.432;37.248;2023-02-11T07:35:50;13.07;;;5.37;;
70426;SDS011;57872;55.432;37.248;2023-02-11T07:40:51;12.13;;;4.93;;
70426;SDS011;57872;55.432;37.248;2023-02-11T07:45:52;12.20;;;4.90;;
70426;SDS011;57872;55.432;37.248;2023-02-11T08:03:58;14.87;;;5.93;;
70426;SDS011;57872;55.432;37.248;2023-02-11T08:09:45;15.90;;;6.40;;
70426;SDS011;57872;55.432;37.248;2023-02-11T08:15:21;20.00;;;7.23;;
70426;SDS011;57872;55.432;37.248;2023-02-11T08:20:28;15.23;;;6.47;;
70426;SDS011;57872;55.432;37.248;2023-02-11T08:25:29;15.43;;;5.70;;
70426;SDS011;57872;55.432;37.248;2023-02-11T08:30:41;17.73;;;5.87;;
70426;SDS011;57872;55.432;37.248;2023-02-11T08:35:45;15.10;;;6.23;;
70426;SDS011;57872;55.432;37.248;2023-02-11T08:40:46;18.40;;;5.47;;
70426;SDS011;57872;55.432;37.248;2023-02-11T08:45:51;13.13;;;5.03;;
70426;SDS011;57872;55.432;37.248;2023-02-11T08:50:52;18.83;;;5.90;;
70426;SDS011;57872;55.432;37.248;2023-02-11T08:55:57;16.23;;;6.23;;
70426;SDS011;57872;55.432;37.248;2023-02-11T09:00:58;17.17;;;6.60;;
70426;SDS011;57872;55.432;37.248;2023-02-11T09:06:02;14.60;;;5.97;;
70426;SDS011;57872;55.432;37.248;2023-02-11T09:11:05;18.20;;;6.60;;
70426;SDS011;57872;55.432;37.248;2023-02-11T09:16:13;15.03;;;6.20;;
70426;SDS011;57872;55.432;37.248;2023-02-11T09:21:30;17.73;;;6.10;;
70426;SDS011;57872;55.432;37.248;2023-02-11T09:26:32;17.13;;;6.17;;
70426;SDS011;57872;55.432;37.248;2023-02-11T09:31:43;16.03;;;5.30;;
70426;SDS011;57872;55.432;37.248;2023-02-11T09:37:17;15.07;;;5.43;;
70426;SDS011;57872;55.432;37.248;2023-02-11T09:42:49;19.13;;;6.17;;
70426;SDS011;57872;55.432;37.248;2023-02-11T09:48:21;18.37;;;6.23;;
70426;SDS011;57872;55.432;37.248;2023-02-11T09:53:54;14.77;;;5.33;;
70426;SDS011;57872;55.432;37.248;2023-02-11T09:58:57;18.30;;;5.40;;
70426;SDS011;57872;55.432;37.248;2023-02-11T10:04:13;17.80;;;6.40;;
70426;SDS011;57872;55.432;37.248;2023-02-11T10:09:56;18.90;;;5.90;;
70426;SDS011;57872;55.432;37.248;2023-02-11T10:21:35;18.17;;;6.63;;
70426;SDS011;57872;55.432;37.248;2023-02-11T10:26:47;20.73;;;7.97;;
70426;SDS011;57872;55.432;37.248;2023-02-11T10:31:52;20.50;;;7.90;;
70426;SDS011;57872;55.432;37.248;2023-02-11T10:37:05;19.57;;;7.97;;
70426;SDS011;57872;55.432;37.248;2023-02-11T10:42:26;19.03;;;7.77;;
70426;SDS011;57872;55.432;37.248;2023-02-11T10:48:41;17.63;;;7.70;;
70426;SDS011;57872;55.432;37.248;2023-02-11T10:59:34;22.33;;;7.87;;
70426;SDS011;57872;55.432;37.248;2023-02-11T11:04:43;16.30;;;7.10;;
70426;SDS011;57872;55.432;37.248;2023-02-11T11:27:40;23.60;;;8.97;;
70426;SDS011;57872;55.432;37.248;2023-02-11T11:32:41;18.17;;;7.50;;
70426;SDS011;57872;55.432;37.248;2023-02-11T11:48:59;15.63;;;7.00;;
70426;SDS011;57872;55.432;37.248;2023-02-11T11:54:11;19.23;;;7.00;;
70426;SDS011;57872;55.432;37.248;2023-02-11T11:59:13;22.15;;;7.63;;
70426;SDS011;57872;55.432;37.248;2023-02-11T12:26:56;19.27;;;8.37;;
70426;SDS011;57872;55.432;37.248;2023-02-11T12:50:46;21.40;;;7.77;;
70426;SDS011;57872;55.432;37.248;2023-02-11T13:01:32;24.63;;;7.90;;
70426;SDS011;57872;55.432;37.248;2023-02-11T13:06:39;22.57;;;7.83;;
70426;SDS011;57872;55.432;37.248;2023-02-11T13:12:35;24.03;;;7.87;;
70426;SDS011;57872;55.432;37.248;2023-02-11T13:41:23;24.00;;;8.57;;
70426;SDS011;57872;55.432;37.248;2023-02-11T13:47:38;25.77;;;10.13;;
70426;SDS011;57872;55.432;37.248;2023-02-11T14:05:30;31.30;;;13.10;;
70426;SDS011;57872;55.432;37.248;2023-02-11T14:23:04;24.45;;;9.25;;
70426;SDS011;57872;55.432;37.248;2023-02-11T14:28:35;24.77;;;8.77;;
70426;SDS011;57872;55.432;37.248;2023-02-11T14:34:00;23.95;;;7.50;;
70426;SDS011;57872;55.432;37.248;2023-02-11T14:40:47;26.20;;;8.80;;
70426;SDS011;57872;55.432;37.248;2023-02-11T14:46:06;32.40;;;8.70;;
70426;SDS011;57872;55.432;37.248;2023-02-11T14:56:33;22.23;;;9.33;;
70426;SDS011;57872;55.432;37.248;2023-02-11T15:01:55;21.53;;;7.60;;
70426;SDS011;57872;55.432;37.248;2023-02-11T15:08:02;26.13;;;7.73;;
70426;SDS011;57872;55.432;37.248;2023-02-11T15:31:44;22.73;;;7.40;;
70426;SDS011;57872;55.432;37.248;2023-02-11T15:36:59;20.93;;;7.67;;
70426;SDS011;57872;55.432;37.248;2023-02-11T15:47:32;16.77;;;6.77;;
70426;SDS011;57872;55.432;37.248;2023-02-11T15:52:53;21.97;;;6.80;;
70426;SDS011;57872;55.432;37.248;2023-02-11T16:51:41;20.33;;;7.33;;
70426;SDS011;57872;55.432;37.248;2023-02-11T17:03:00;17.20;;;6.90;;
70426;SDS011;57872;55.432;37.248;2023-02-11T17:08:09;21.87;;;6.73;;
70426;SDS011;57872;55.432;37.248;2023-02-11T17:13:16;16.43;;;6.50;;
70426;SDS011;57872;55.432;37.248;2023-02-11T17:18:18;21.23;;;6.90;;
70426;SDS011;57872;55.432;37.248;2023-02-11T17:34:23;17.23;;;6.93;;
70426;SDS011;57872;55.432;37.248;2023-02-11T18:04:02;15.30;;;7.00;;
70426;SDS011;57872;55.432;37.248;2023-02-11T18:09:42;21.30;;;7.07;;
70426;SDS011;57872;55.432;37.248;2023-02-11T18:14:47;14.07;;;5.50;;
70426;SDS011;57872;55.432;37.248;2023-02-11T18:57:18;18.77;;;7.20;;
70426;SDS011;57872;55.432;37.248;2023-02-11T19:03:04;19.17;;;7.47;;
70426;SDS011;57872;55.432;37.248;2023-02-11T19:59:32;15.37;;;7.20;;
70426;SDS011;57872;55.432;37.248;2023-02-11T20:04:46;15.17;;;6.20;;
70426;SDS011;57872;55.432;37.248;2023-02-11T20:09:50;14.33;;;6.53;;
70426;SDS011;57872;55.432;37.248;2023-02-11T20:15:27;19.73;;;6.83;;
70426;SDS011;57872;55.432;37.248;2023-02-11T20:32:56;16.90;;;6.57;;
70426;SDS011;57872;55.432;37.248;2023-02-11T20:50:22;12.93;;;5.77;;
70426;SDS011;57872;55.432;37.248;2023-02-11T20:55:36;13.33;;;6.50;;
70426;SDS011;57872;55.432;37.248;2023-02-11T21:00:39;15.60;;;6.70;;
70426;SDS011;57872;55.432;37.248;2023-02-11T21:05:40;13.50;;;6.07;;
70426;SDS011;57872;55.432;37.248;2023-02-11T21:10:41;12.53;;;5.90;;
70426;SDS011;57872;55.432;37.248;2023-02-11T21:15:42;12.47;;;6.30;;
70426;SDS011;57872;55.432;37.248;2023-02-11T21:20:43;16.60;;;6.17;;
70426;SDS011;57872;55.432;37.248;2023-02-11T21:31:17;15.77;;;6.47;;
70426;SDS011;57872;55.432;37.248;2023-02-11T21:36:34;15.07;;;6.33;;
70426;SDS011;57872;55.432;37.248;2023-02-11T21:41:35;13.30;;;5.60;;
70426;SDS011;57872;55.432;37.248;2023-02-11T21:46:36;15.90;;;6.60;;
70426;SDS011;57872;55.432;37.248;2023-02-11T21:51:40;12.63;;;5.80;;
70426;SDS011;57872;55.432;37.248;2023-02-11T21:56:41;12.53;;;6.07;;
70426;SDS011;57872;55.432;37.248;2023-02-11T22:01:43;12.13;;;5.60;;
70426;SDS011;57872;55.432;37.248;2023-02-11T22:12:59;12.77;;;5.93;;
70426;SDS011;57872;55.432;37.248;2023-02-11T22:17:59;12.07;;;5.53;;
70426;SDS011;57872;55.432;37.248;2023-02-11T22:23:03;11.82;;;5.95;;
70426;SDS011;57872;55.432;37.248;2023-02-11T22:28:07;10.90;;;5.10;;
70426;SDS011;57872;55.432;37.248;2023-02-11T22:33:15;13.43;;;5.87;;
70426;SDS011;57872;55.432;37.248;2023-02-11T22:38:58;12.20;;;5.33;;
70426;SDS011;57872;55.432;37.248;2023-02-11T22:44:19;12.25;;;5.88;;
70426;SDS011;57872;55.432;37.248;2023-02-11T22:49:23;12.23;;;5.57;;
70426;SDS011;57872;55.432;37.248;2023-02-11T22:54:28;12.00;;;6.10;;
70426;SDS011;57872;55.432;37.248;2023-02-11T22:59:28;12.50;;;6.57;;
70426;SDS011;57872;55.432;37.248;2023-02-11T23:04:32;11.30;;;5.77;;
70426;SDS011;57872;55.432;37.248;2023-02-11T23:09:39;12.60;;;5.75;;
70426;SDS011;57872;55.432;37.248;2023-02-11T23:15:16;10.87;;;5.30;;
70426;SDS011;57872;55.432;37.248;2023-02-11T23:20:20;12.13;;;5.40;;
70426;SDS011;57872;55.432;37.248;2023-02-11T23:25:21;10.10;;;4.90;;
70426;SDS011;57872;55.432;37.248;2023-02-11T23:30:23;11.27;;;4.97;;
70426;SDS011;57872;55.432;37.248;2023-02-11T23:35:24;8.80;;;3.83;;
70426;SDS011;57872;55.432;37.248;2023-02-11T23:40:25;8.73;;;3.73;;
70426;SDS011;57872;55.432;37.248;2023-02-11T23:45:29;7.97;;;3.20;;
70426;SDS011;57872;55.432;37.248;2023-02-11T23:50:33;9.43;;;3.53;;
70426;SDS011;57872;55.432;37.248;2023-02-11T23:55:39;8.00;;;3.10;;
